sensor_id;sensor_type;location;lat;lon;timestamp;P1;durP1;ratioP1;P2;durP2;ratioP2
27201;SDS011;14717;46.924;15.474;2023-12-29T00:01:40;13.27;;;7.55;;
27201;SDS011;14717;46.924;15.474;2023-12-29T00:04:06;16.58;;;9.43;;
27201;SDS011;14717;46.924;15.474;2023-12-29T00:06:31;19.65;;;9.30;;
27201;SDS011;14717;46.924;15.474;2023-12-29T00:08:56;17.58;;;8.88;;
27201;SDS011;14717;46.924;15.474;2023-12-29T00:11:22;20.48;;;9.27;;
27201;SDS011;14717;46.924;15.474;2023-12-29T00:13:47;16.85;;;8.70;;
27201;SDS011;14717;46.924;15.474;2023-12-29T00:16:14;19.27;;;9.05;;
27201;SDS011;14717;46.924;15.474;2023-12-29T00:18:40;19.13;;;9.38;;
27201;SDS011;14717;46.924;15.474;2023-12-29T00:21:05;20.52;;;9.77;;
27201;SDS011;14717;46.924;15.474;2023-12-29T00:23:31;16.52;;;10.07;;
27201;SDS011;14717;46.924;15.474;2023-12-29T00:25:56;19.58;;;9.93;;
27201;SDS011;14717;46.924;15.474;2023-12-29T00:28:22;19.73;;;9.85;;
27201;SDS011;14717;46.924;15.474;2023-12-29T00:30:47;22.77;;;10.75;;
27201;SDS011;14717;46.924;15.474;2023-12-29T00:33:12;23.27;;;10.52;;
27201;SDS011;14717;46.924;15.474;2023-12-29T00:35:38;23.27;;;10.98;;
27201;SDS011;14717;46.924;15.474;2023-12-29T00:38:06;19.63;;;10.23;;
27201;SDS011;14717;46.924;15.474;2023-12-29T00:40:32;19.02;;;9.35;;
27201;SDS011;14717;46.924;15.474;2023-12-29T00:42:57;20.15;;;10.25;;
27201;SDS011;14717;46.924;15.474;2023-12-29T00:45:23;18.65;;;9.00;;
27201;SDS011;14717;46.924;15.474;2023-12-29T00:47:48;18.75;;;8.80;;
27201;SDS011;14717;46.924;15.474;2023-12-29T00:50:15;16.77;;;8.98;;
27201;SDS011;14717;46.924;15.474;2023-12-29T00:52:41;20.23;;;9.20;;
27201;SDS011;14717;46.924;15.474;2023-12-29T00:55:06;16.52;;;9.10;;
27201;SDS011;14717;46.924;15.474;2023-12-29T00:57:32;18.13;;;9.07;;
27201;SDS011;14717;46.924;15.474;2023-12-29T00:59:57;16.33;;;8.05;;
27201;SDS011;14717;46.924;15.474;2023-12-29T01:02:22;16.05;;;8.27;;
27201;SDS011;14717;46.924;15.474;2023-12-29T01:04:48;15.90;;;8.32;;
27201;SDS011;14717;46.924;15.474;2023-12-29T01:07:13;16.48;;;8.10;;
27201;SDS011;14717;46.924;15.474;2023-12-29T01:09:38;15.30;;;6.80;;
27201;SDS011;14717;46.924;15.474;2023-12-29T01:12:05;12.45;;;7.03;;
27201;SDS011;14717;46.924;15.474;2023-12-29T01:14:31;12.55;;;6.90;;
27201;SDS011;14717;46.924;15.474;2023-12-29T01:16:56;16.83;;;8.18;;
27201;SDS011;14717;46.924;15.474;2023-12-29T01:19:21;18.05;;;7.78;;
27201;SDS011;14717;46.924;15.474;2023-12-29T01:21:47;16.98;;;8.00;;
27201;SDS011;14717;46.924;15.474;2023-12-29T01:24:12;16.20;;;7.43;;
27201;SDS011;14717;46.924;15.474;2023-12-29T01:26:37;16.65;;;7.65;;
27201;SDS011;14717;46.924;15.474;2023-12-29T01:29:03;18.67;;;8.30;;
27201;SDS011;14717;46.924;15.474;2023-12-29T01:31:29;15.98;;;7.78;;
27201;SDS011;14717;46.924;15.474;2023-12-29T01:33:55;15.35;;;7.90;;
27201;SDS011;14717;46.924;15.474;2023-12-29T01:36:21;17.27;;;7.95;;
27201;SDS011;14717;46.924;15.474;2023-12-29T01:38:46;15.35;;;7.88;;
27201;SDS011;14717;46.924;15.474;2023-12-29T01:41:11;16.25;;;8.25;;
27201;SDS011;14717;46.924;15.474;2023-12-29T01:44:02;16.77;;;8.75;;
27201;SDS011;14717;46.924;15.474;2023-12-29T01:46:25;15.52;;;8.60;;
27201;SDS011;14717;46.924;15.474;2023-12-29T01:48:52;18.90;;;8.85;;
27201;SDS011;14717;46.924;15.474;2023-12-29T01:51:17;17.65;;;8.00;;
27201;SDS011;14717;46.924;15.474;2023-12-29T01:53:46;19.42;;;8.13;;
27201;SDS011;14717;46.924;15.474;2023-12-29T01:56:13;17.50;;;8.73;;
27201;SDS011;14717;46.924;15.474;2023-12-29T01:58:39;19.40;;;8.30;;
27201;SDS011;14717;46.924;15.474;2023-12-29T02:01:05;16.65;;;8.02;;
27201;SDS011;14717;46.924;15.474;2023-12-29T02:03:32;15.48;;;8.25;;
27201;SDS011;14717;46.924;15.474;2023-12-29T02:05:58;25.23;;;9.77;;
27201;SDS011;14717;46.924;15.474;2023-12-29T02:08:24;18.83;;;9.05;;
27201;SDS011;14717;46.924;15.474;2023-12-29T02:10:50;18.80;;;8.15;;
27201;SDS011;14717;46.924;15.474;2023-12-29T02:13:16;18.13;;;8.65;;
27201;SDS011;14717;46.924;15.474;2023-12-29T02:15:41;16.45;;;8.70;;
27201;SDS011;14717;46.924;15.474;2023-12-29T02:18:07;16.52;;;9.32;;
27201;SDS011;14717;46.924;15.474;2023-12-29T02:20:40;15.82;;;8.40;;
27201;SDS011;14717;46.924;15.474;2023-12-29T02:23:06;19.55;;;8.68;;
27201;SDS011;14717;46.924;15.474;2023-12-29T02:25:31;14.05;;;7.68;;
27201;SDS011;14717;46.924;15.474;2023-12-29T02:27:58;16.00;;;8.13;;
27201;SDS011;14717;46.924;15.474;2023-12-29T02:30:43;16.05;;;7.95;;
27201;SDS011;14717;46.924;15.474;2023-12-29T02:33:19;19.33;;;8.25;;
27201;SDS011;14717;46.924;15.474;2023-12-29T02:35:47;15.05;;;7.85;;
27201;SDS011;14717;46.924;15.474;2023-12-29T02:38:16;13.18;;;7.30;;
27201;SDS011;14717;46.924;15.474;2023-12-29T02:40:42;15.80;;;7.45;;
27201;SDS011;14717;46.924;15.474;2023-12-29T02:43:08;15.43;;;7.70;;
27201;SDS011;14717;46.924;15.474;2023-12-29T02:47:59;14.73;;;6.87;;
27201;SDS011;14717;46.924;15.474;2023-12-29T02:50:24;14.73;;;7.00;;
27201;SDS011;14717;46.924;15.474;2023-12-29T02:52:50;12.18;;;6.68;;
27201;SDS011;14717;46.924;15.474;2023-12-29T02:55:15;15.80;;;7.70;;
27201;SDS011;14717;46.924;15.474;2023-12-29T02:57:40;11.10;;;6.07;;
27201;SDS011;14717;46.924;15.474;2023-12-29T03:00:06;12.90;;;6.38;;
27201;SDS011;14717;46.924;15.474;2023-12-29T03:02:32;13.02;;;6.63;;
27201;SDS011;14717;46.924;15.474;2023-12-29T03:04:58;11.32;;;5.90;;
27201;SDS011;14717;46.924;15.474;2023-12-29T03:07:23;15.38;;;6.38;;
27201;SDS011;14717;46.924;15.474;2023-12-29T03:09:49;12.20;;;6.13;;
27201;SDS011;14717;46.924;15.474;2023-12-29T03:12:14;16.33;;;6.60;;
27201;SDS011;14717;46.924;15.474;2023-12-29T03:14:39;15.77;;;6.40;;
27201;SDS011;14717;46.924;15.474;2023-12-29T03:17:05;14.25;;;6.72;;
27201;SDS011;14717;46.924;15.474;2023-12-29T03:19:30;12.75;;;6.55;;
27201;SDS011;14717;46.924;15.474;2023-12-29T03:21:55;12.98;;;6.57;;
27201;SDS011;14717;46.924;15.474;2023-12-29T03:24:21;12.32;;;6.57;;
27201;SDS011;14717;46.924;15.474;2023-12-29T03:26:46;13.75;;;7.30;;
27201;SDS011;14717;46.924;15.474;2023-12-29T03:29:12;14.60;;;7.20;;
27201;SDS011;14717;46.924;15.474;2023-12-29T03:31:37;11.75;;;6.13;;
27201;SDS011;14717;46.924;15.474;2023-12-29T03:34:03;13.60;;;6.72;;
27201;SDS011;14717;46.924;15.474;2023-12-29T03:36:28;13.50;;;6.20;;
27201;SDS011;14717;46.924;15.474;2023-12-29T03:38:54;12.15;;;6.13;;
27201;SDS011;14717;46.924;15.474;2023-12-29T03:41:19;14.20;;;6.68;;
27201;SDS011;14717;46.924;15.474;2023-12-29T03:43:44;11.00;;;6.20;;
27201;SDS011;14717;46.924;15.474;2023-12-29T03:46:17;12.35;;;6.60;;
27201;SDS011;14717;46.924;15.474;2023-12-29T03:48:45;14.75;;;6.22;;
27201;SDS011;14717;46.924;15.474;2023-12-29T03:51:11;14.52;;;6.57;;
27201;SDS011;14717;46.924;15.474;2023-12-29T03:53:37;12.95;;;6.18;;
27201;SDS011;14717;46.924;15.474;2023-12-29T03:56:06;13.48;;;6.40;;
27201;SDS011;14717;46.924;15.474;2023-12-29T03:58:42;15.27;;;6.32;;
27201;SDS011;14717;46.924;15.474;2023-12-29T04:01:09;14.95;;;6.25;;
27201;SDS011;14717;46.924;15.474;2023-12-29T04:03:45;13.10;;;6.65;;
27201;SDS011;14717;46.924;15.474;2023-12-29T04:06:10;12.15;;;6.40;;
27201;SDS011;14717;46.924;15.474;2023-12-29T04:08:36;13.57;;;6.43;;
27201;SDS011;14717;46.924;15.474;2023-12-29T04:11:03;16.40;;;7.00;;
27201;SDS011;14717;46.924;15.474;2023-12-29T04:13:29;12.85;;;6.05;;
27201;SDS011;14717;46.924;15.474;2023-12-29T04:15:55;12.93;;;6.10;;
27201;SDS011;14717;46.924;15.474;2023-12-29T04:18:21;13.35;;;5.85;;
27201;SDS011;14717;46.924;15.474;2023-12-29T04:20:49;12.55;;;6.28;;
27201;SDS011;14717;46.924;15.474;2023-12-29T04:23:14;14.75;;;6.95;;
27201;SDS011;14717;46.924;15.474;2023-12-29T04:25:40;13.25;;;6.45;;
27201;SDS011;14717;46.924;15.474;2023-12-29T04:28:09;13.15;;;6.50;;
27201;SDS011;14717;46.924;15.474;2023-12-29T04:30:34;13.70;;;6.75;;
27201;SDS011;14717;46.924;15.474;2023-12-29T04:33:00;11.98;;;6.78;;
27201;SDS011;14717;46.924;15.474;2023-12-29T04:35:25;9.82;;;6.18;;
27201;SDS011;14717;46.924;15.474;2023-12-29T04:37:51;12.40;;;6.07;;
27201;SDS011;14717;46.924;15.474;2023-12-29T04:40:17;12.70;;;6.00;;
27201;SDS011;14717;46.924;15.474;2023-12-29T04:42:43;15.50;;;6.00;;
27201;SDS011;14717;46.924;15.474;2023-12-29T04:45:08;12.73;;;6.80;;
27201;SDS011;14717;46.924;15.474;2023-12-29T04:47:35;10.57;;;5.90;;
27201;SDS011;14717;46.924;15.474;2023-12-29T04:50:00;17.23;;;7.28;;
27201;SDS011;14717;46.924;15.474;2023-12-29T04:52:26;12.10;;;6.10;;
27201;SDS011;14717;46.924;15.474;2023-12-29T04:54:51;11.52;;;6.30;;
27201;SDS011;14717;46.924;15.474;2023-12-29T04:57:17;12.75;;;6.55;;
27201;SDS011;14717;46.924;15.474;2023-12-29T04:59:42;16.67;;;7.30;;
27201;SDS011;14717;46.924;15.474;2023-12-29T05:02:08;13.50;;;7.15;;
27201;SDS011;14717;46.924;15.474;2023-12-29T05:04:33;12.90;;;6.25;;
27201;SDS011;14717;46.924;15.474;2023-12-29T05:06:59;13.32;;;6.20;;
27201;SDS011;14717;46.924;15.474;2023-12-29T05:09:24;15.73;;;6.90;;
27201;SDS011;14717;46.924;15.474;2023-12-29T05:11:49;14.43;;;6.65;;
27201;SDS011;14717;46.924;15.474;2023-12-29T05:14:15;12.57;;;7.07;;
27201;SDS011;14717;46.924;15.474;2023-12-29T05:16:43;11.00;;;6.00;;
27201;SDS011;14717;46.924;15.474;2023-12-29T05:19:09;11.98;;;5.80;;
27201;SDS011;14717;46.924;15.474;2023-12-29T05:21:34;12.38;;;6.13;;
27201;SDS011;14717;46.924;15.474;2023-12-29T05:23:59;13.65;;;6.13;;
27201;SDS011;14717;46.924;15.474;2023-12-29T05:26:25;13.98;;;6.68;;
27201;SDS011;14717;46.924;15.474;2023-12-29T05:28:50;12.85;;;6.38;;
27201;SDS011;14717;46.924;15.474;2023-12-29T05:31:16;11.25;;;5.15;;
27201;SDS011;14717;46.924;15.474;2023-12-29T05:33:42;12.57;;;5.65;;
27201;SDS011;14717;46.924;15.474;2023-12-29T05:36:08;11.48;;;5.82;;
27201;SDS011;14717;46.924;15.474;2023-12-29T05:38:35;12.98;;;5.53;;
27201;SDS011;14717;46.924;15.474;2023-12-29T05:41:04;11.68;;;5.75;;
27201;SDS011;14717;46.924;15.474;2023-12-29T05:43:30;12.77;;;5.88;;
27201;SDS011;14717;46.924;15.474;2023-12-29T05:45:57;12.73;;;5.85;;
27201;SDS011;14717;46.924;15.474;2023-12-29T05:48:23;12.00;;;5.47;;
27201;SDS011;14717;46.924;15.474;2023-12-29T05:50:49;12.90;;;5.70;;
27201;SDS011;14717;46.924;15.474;2023-12-29T05:53:15;13.75;;;5.47;;
27201;SDS011;14717;46.924;15.474;2023-12-29T05:55:40;11.30;;;5.20;;
27201;SDS011;14717;46.924;15.474;2023-12-29T05:58:06;14.55;;;5.78;;
27201;SDS011;14717;46.924;15.474;2023-12-29T06:00:31;15.82;;;6.65;;
27201;SDS011;14717;46.924;15.474;2023-12-29T06:02:57;11.85;;;5.90;;
27201;SDS011;14717;46.924;15.474;2023-12-29T06:05:22;11.88;;;5.57;;
27201;SDS011;14717;46.924;15.474;2023-12-29T06:07:47;12.80;;;6.20;;
27201;SDS011;14717;46.924;15.474;2023-12-29T06:10:13;13.18;;;6.95;;
27201;SDS011;14717;46.924;15.474;2023-12-29T06:12:38;13.48;;;6.22;;
27201;SDS011;14717;46.924;15.474;2023-12-29T06:15:04;13.45;;;5.93;;
27201;SDS011;14717;46.924;15.474;2023-12-29T06:17:29;14.63;;;6.28;;
27201;SDS011;14717;46.924;15.474;2023-12-29T06:19:55;12.80;;;6.40;;
27201;SDS011;14717;46.924;15.474;2023-12-29T06:22:20;12.50;;;6.68;;
27201;SDS011;14717;46.924;15.474;2023-12-29T06:24:46;14.32;;;6.95;;
27201;SDS011;14717;46.924;15.474;2023-12-29T06:27:11;13.38;;;6.32;;
27201;SDS011;14717;46.924;15.474;2023-12-29T06:29:37;14.63;;;6.65;;
27201;SDS011;14717;46.924;15.474;2023-12-29T06:32:03;15.85;;;7.15;;
27201;SDS011;14717;46.924;15.474;2023-12-29T06:34:29;13.40;;;6.45;;
27201;SDS011;14717;46.924;15.474;2023-12-29T06:36:54;11.98;;;5.82;;
27201;SDS011;14717;46.924;15.474;2023-12-29T06:39:20;19.52;;;7.05;;
27201;SDS011;14717;46.924;15.474;2023-12-29T06:41:45;15.63;;;6.70;;
27201;SDS011;14717;46.924;15.474;2023-12-29T06:44:11;13.48;;;6.45;;
27201;SDS011;14717;46.924;15.474;2023-12-29T06:46:36;12.43;;;5.85;;
27201;SDS011;14717;46.924;15.474;2023-12-29T06:49:02;11.77;;;6.00;;
27201;SDS011;14717;46.924;15.474;2023-12-29T06:51:28;15.50;;;6.82;;
27201;SDS011;14717;46.924;15.474;2023-12-29T06:53:53;16.27;;;7.40;;
27201;SDS011;14717;46.924;15.474;2023-12-29T06:56:19;16.52;;;6.93;;
27201;SDS011;14717;46.924;15.474;2023-12-29T06:58:44;14.82;;;6.00;;
27201;SDS011;14717;46.924;15.474;2023-12-29T07:01:10;15.00;;;6.60;;
27201;SDS011;14717;46.924;15.474;2023-12-29T07:03:36;12.75;;;6.80;;
27201;SDS011;14717;46.924;15.474;2023-12-29T07:06:01;12.88;;;6.90;;
27201;SDS011;14717;46.924;15.474;2023-12-29T07:08:27;14.20;;;6.65;;
27201;SDS011;14717;46.924;15.474;2023-12-29T07:10:53;14.95;;;6.65;;
27201;SDS011;14717;46.924;15.474;2023-12-29T07:13:18;13.77;;;6.93;;
27201;SDS011;14717;46.924;15.474;2023-12-29T07:15:47;12.52;;;6.60;;
27201;SDS011;14717;46.924;15.474;2023-12-29T07:18:13;15.20;;;6.53;;
27201;SDS011;14717;46.924;15.474;2023-12-29T07:20:39;15.82;;;6.72;;
27201;SDS011;14717;46.924;15.474;2023-12-29T07:23:04;15.35;;;6.70;;
27201;SDS011;14717;46.924;15.474;2023-12-29T07:25:30;13.38;;;6.72;;
27201;SDS011;14717;46.924;15.474;2023-12-29T07:27:55;15.50;;;7.55;;
27201;SDS011;14717;46.924;15.474;2023-12-29T07:30:21;13.60;;;7.00;;
27201;SDS011;14717;46.924;15.474;2023-12-29T07:32:46;14.07;;;6.97;;
27201;SDS011;14717;46.924;15.474;2023-12-29T07:35:12;13.20;;;7.70;;
27201;SDS011;14717;46.924;15.474;2023-12-29T07:37:41;20.67;;;8.98;;
27201;SDS011;14717;46.924;15.474;2023-12-29T07:40:07;15.75;;;7.10;;
27201;SDS011;14717;46.924;15.474;2023-12-29T07:42:35;18.40;;;9.75;;
27201;SDS011;14717;46.924;15.474;2023-12-29T07:45:00;16.92;;;8.70;;
27201;SDS011;14717;46.924;15.474;2023-12-29T07:47:26;18.27;;;9.80;;
27201;SDS011;14717;46.924;15.474;2023-12-29T07:49:51;19.30;;;9.40;;
27201;SDS011;14717;46.924;15.474;2023-12-29T07:52:16;17.45;;;9.38;;
27201;SDS011;14717;46.924;15.474;2023-12-29T07:54:42;16.33;;;8.98;;
27201;SDS011;14717;46.924;15.474;2023-12-29T07:57:07;23.02;;;10.43;;
27201;SDS011;14717;46.924;15.474;2023-12-29T07:59:33;20.15;;;10.07;;
27201;SDS011;14717;46.924;15.474;2023-12-29T08:01:58;17.40;;;9.15;;
27201;SDS011;14717;46.924;15.474;2023-12-29T08:04:24;18.23;;;9.40;;
27201;SDS011;14717;46.924;15.474;2023-12-29T08:06:49;17.60;;;9.48;;
27201;SDS011;14717;46.924;15.474;2023-12-29T08:09:14;18.80;;;9.30;;
27201;SDS011;14717;46.924;15.474;2023-12-29T08:11:40;21.45;;;9.38;;
27201;SDS011;14717;46.924;15.474;2023-12-29T08:14:07;14.93;;;8.25;;
27201;SDS011;14717;46.924;15.474;2023-12-29T08:16:37;13.85;;;7.95;;
27201;SDS011;14717;46.924;15.474;2023-12-29T08:19:04;12.98;;;6.25;;
27201;SDS011;14717;46.924;15.474;2023-12-29T08:21:29;16.05;;;7.65;;
27201;SDS011;14717;46.924;15.474;2023-12-29T08:23:55;18.13;;;8.05;;
27201;SDS011;14717;46.924;15.474;2023-12-29T08:26:20;15.57;;;7.55;;
27201;SDS011;14717;46.924;15.474;2023-12-29T08:28:45;10.65;;;6.47;;
27201;SDS011;14717;46.924;15.474;2023-12-29T08:31:11;11.75;;;6.05;;
27201;SDS011;14717;46.924;15.474;2023-12-29T08:33:36;9.70;;;5.63;;
27201;SDS011;14717;46.924;15.474;2023-12-29T08:36:02;12.30;;;6.00;;
27201;SDS011;14717;46.924;15.474;2023-12-29T08:38:28;11.00;;;6.18;;
27201;SDS011;14717;46.924;15.474;2023-12-29T08:40:54;10.52;;;5.80;;
27201;SDS011;14717;46.924;15.474;2023-12-29T08:43:20;11.88;;;6.07;;
27201;SDS011;14717;46.924;15.474;2023-12-29T08:45:47;12.57;;;5.95;;
27201;SDS011;14717;46.924;15.474;2023-12-29T08:48:12;9.98;;;5.60;;
27201;SDS011;14717;46.924;15.474;2023-12-29T08:50:38;9.98;;;5.50;;
27201;SDS011;14717;46.924;15.474;2023-12-29T08:53:04;10.50;;;5.82;;
27201;SDS011;14717;46.924;15.474;2023-12-29T08:55:29;13.70;;;6.18;;
27201;SDS011;14717;46.924;15.474;2023-12-29T08:57:56;15.48;;;6.55;;
27201;SDS011;14717;46.924;15.474;2023-12-29T09:00:22;13.07;;;6.32;;
27201;SDS011;14717;46.924;15.474;2023-12-29T09:02:47;14.00;;;7.15;;
27201;SDS011;14717;46.924;15.474;2023-12-29T09:05:12;12.95;;;7.07;;
27201;SDS011;14717;46.924;15.474;2023-12-29T09:07:38;13.73;;;7.35;;
27201;SDS011;14717;46.924;15.474;2023-12-29T09:10:04;13.65;;;6.88;;
27201;SDS011;14717;46.924;15.474;2023-12-29T09:12:33;12.70;;;6.45;;
27201;SDS011;14717;46.924;15.474;2023-12-29T09:14:59;14.02;;;6.60;;
27201;SDS011;14717;46.924;15.474;2023-12-29T09:17:24;9.82;;;5.10;;
27201;SDS011;14717;46.924;15.474;2023-12-29T09:19:49;11.57;;;5.63;;
27201;SDS011;14717;46.924;15.474;2023-12-29T09:22:15;12.43;;;5.68;;
27201;SDS011;14717;46.924;15.474;2023-12-29T09:24:40;14.70;;;6.60;;
27201;SDS011;14717;46.924;15.474;2023-12-29T09:27:06;11.02;;;5.28;;
27201;SDS011;14717;46.924;15.474;2023-12-29T09:29:31;10.57;;;5.38;;
27201;SDS011;14717;46.924;15.474;2023-12-29T09:31:57;10.18;;;5.40;;
27201;SDS011;14717;46.924;15.474;2023-12-29T09:34:22;9.70;;;4.82;;
27201;SDS011;14717;46.924;15.474;2023-12-29T09:36:47;9.95;;;4.80;;
27201;SDS011;14717;46.924;15.474;2023-12-29T09:39:13;7.70;;;3.88;;
27201;SDS011;14717;46.924;15.474;2023-12-29T09:41:39;9.55;;;4.65;;
27201;SDS011;14717;46.924;15.474;2023-12-29T09:44:13;8.07;;;3.88;;
27201;SDS011;14717;46.924;15.474;2023-12-29T09:46:39;6.22;;;3.67;;
27201;SDS011;14717;46.924;15.474;2023-12-29T09:49:07;8.90;;;3.60;;
27201;SDS011;14717;46.924;15.474;2023-12-29T09:51:33;9.57;;;3.90;;
27201;SDS011;14717;46.924;15.474;2023-12-29T09:53:59;7.32;;;4.03;;
27201;SDS011;14717;46.924;15.474;2023-12-29T09:56:25;9.25;;;4.65;;
27201;SDS011;14717;46.924;15.474;2023-12-29T09:58:51;8.10;;;4.28;;
27201;SDS011;14717;46.924;15.474;2023-12-29T10:01:17;8.80;;;3.60;;
27201;SDS011;14717;46.924;15.474;2023-12-29T10:03:44;7.35;;;3.83;;
27201;SDS011;14717;46.924;15.474;2023-12-29T10:06:09;5.95;;;3.58;;
27201;SDS011;14717;46.924;15.474;2023-12-29T10:08:38;6.65;;;3.88;;
27201;SDS011;14717;46.924;15.474;2023-12-29T10:11:10;5.38;;;2.80;;
27201;SDS011;14717;46.924;15.474;2023-12-29T10:13:38;5.53;;;2.90;;
27201;SDS011;14717;46.924;15.474;2023-12-29T10:18:37;6.63;;;3.00;;
27201;SDS011;14717;46.924;15.474;2023-12-29T10:21:23;5.75;;;2.97;;
27201;SDS011;14717;46.924;15.474;2023-12-29T10:26:35;8.07;;;3.40;;
27201;SDS011;14717;46.924;15.474;2023-12-29T10:29:01;6.03;;;3.20;;
27201;SDS011;14717;46.924;15.474;2023-12-29T10:31:27;7.07;;;3.22;;
27201;SDS011;14717;46.924;15.474;2023-12-29T10:33:52;18.05;;;6.22;;
27201;SDS011;14717;46.924;15.474;2023-12-29T10:36:46;7.40;;;3.30;;
27201;SDS011;14717;46.924;15.474;2023-12-29T10:39:11;6.75;;;3.58;;
27201;SDS011;14717;46.924;15.474;2023-12-29T10:41:38;5.50;;;2.88;;
27201;SDS011;14717;46.924;15.474;2023-12-29T10:44:06;6.55;;;3.10;;
27201;SDS011;14717;46.924;15.474;2023-12-29T10:46:31;6.13;;;2.97;;
27201;SDS011;14717;46.924;15.474;2023-12-29T10:49:06;7.40;;;3.15;;
27201;SDS011;14717;46.924;15.474;2023-12-29T10:51:34;7.65;;;3.40;;
27201;SDS011;14717;46.924;15.474;2023-12-29T10:54:00;5.80;;;3.05;;
27201;SDS011;14717;46.924;15.474;2023-12-29T10:56:25;6.13;;;3.10;;
27201;SDS011;14717;46.924;15.474;2023-12-29T10:59:01;6.22;;;3.17;;
27201;SDS011;14717;46.924;15.474;2023-12-29T11:01:34;6.15;;;3.17;;
27201;SDS011;14717;46.924;15.474;2023-12-29T11:04:06;9.60;;;3.00;;
27201;SDS011;14717;46.924;15.474;2023-12-29T11:06:40;6.55;;;3.05;;
27201;SDS011;14717;46.924;15.474;2023-12-29T11:09:09;7.20;;;2.92;;
27201;SDS011;14717;46.924;15.474;2023-12-29T11:11:35;4.55;;;2.75;;
27201;SDS011;14717;46.924;15.474;2023-12-29T11:16:27;6.70;;;2.83;;
27201;SDS011;14717;46.924;15.474;2023-12-29T11:18:54;8.52;;;3.30;;
27201;SDS011;14717;46.924;15.474;2023-12-29T11:21:21;6.90;;;3.30;;
27201;SDS011;14717;46.924;15.474;2023-12-29T11:23:50;8.45;;;3.30;;
27201;SDS011;14717;46.924;15.474;2023-12-29T11:26:15;5.55;;;2.97;;
27201;SDS011;14717;46.924;15.474;2023-12-29T11:31:07;6.05;;;2.83;;
27201;SDS011;14717;46.924;15.474;2023-12-29T11:33:37;5.60;;;2.88;;
27201;SDS011;14717;46.924;15.474;2023-12-29T11:36:13;4.53;;;2.53;;
27201;SDS011;14717;46.924;15.474;2023-12-29T11:44:24;7.45;;;3.10;;
27201;SDS011;14717;46.924;15.474;2023-12-29T11:46:50;5.55;;;2.47;;
27201;SDS011;14717;46.924;15.474;2023-12-29T11:49:15;5.70;;;2.70;;
27201;SDS011;14717;46.924;15.474;2023-12-29T11:54:10;11.98;;;4.45;;
27201;SDS011;14717;46.924;15.474;2023-12-29T11:56:46;8.45;;;3.30;;
27201;SDS011;14717;46.924;15.474;2023-12-29T11:59:18;8.20;;;3.05;;
27201;SDS011;14717;46.924;15.474;2023-12-29T12:01:55;7.72;;;3.20;;
27201;SDS011;14717;46.924;15.474;2023-12-29T12:07:07;8.68;;;3.30;;
27201;SDS011;14717;46.924;15.474;2023-12-29T12:09:37;8.18;;;3.55;;
27201;SDS011;14717;46.924;15.474;2023-12-29T12:12:03;8.00;;;3.50;;
27201;SDS011;14717;46.924;15.474;2023-12-29T12:14:52;6.38;;;3.55;;
27201;SDS011;14717;46.924;15.474;2023-12-29T12:17:28;6.65;;;2.83;;
27201;SDS011;14717;46.924;15.474;2023-12-29T12:19:56;5.72;;;2.72;;
27201;SDS011;14717;46.924;15.474;2023-12-29T12:22:29;5.03;;;2.92;;
27201;SDS011;14717;46.924;15.474;2023-12-29T12:24:56;7.32;;;2.42;;
27201;SDS011;14717;46.924;15.474;2023-12-29T12:27:23;5.72;;;2.53;;
27201;SDS011;14717;46.924;15.474;2023-12-29T12:30:00;5.55;;;2.60;;
27201;SDS011;14717;46.924;15.474;2023-12-29T12:32:25;5.65;;;2.78;;
27201;SDS011;14717;46.924;15.474;2023-12-29T12:34:52;4.78;;;2.75;;
27201;SDS011;14717;46.924;15.474;2023-12-29T12:37:24;4.97;;;2.60;;
27201;SDS011;14717;46.924;15.474;2023-12-29T12:39:51;4.75;;;2.20;;
27201;SDS011;14717;46.924;15.474;2023-12-29T12:42:17;5.57;;;2.55;;
27201;SDS011;14717;46.924;15.474;2023-12-29T12:44:47;6.10;;;2.70;;
27201;SDS011;14717;46.924;15.474;2023-12-29T12:50:17;6.88;;;3.10;;
27201;SDS011;14717;46.924;15.474;2023-12-29T12:52:43;5.50;;;2.63;;
27201;SDS011;14717;46.924;15.474;2023-12-29T12:55:09;5.03;;;2.90;;
27201;SDS011;14717;46.924;15.474;2023-12-29T12:57:35;8.57;;;3.15;;
27201;SDS011;14717;46.924;15.474;2023-12-29T13:00:02;6.30;;;2.90;;
27201;SDS011;14717;46.924;15.474;2023-12-29T13:02:28;5.40;;;2.85;;
27201;SDS011;14717;46.924;15.474;2023-12-29T13:04:56;5.63;;;2.78;;
27201;SDS011;14717;46.924;15.474;2023-12-29T13:07:22;7.03;;;3.00;;
27201;SDS011;14717;46.924;15.474;2023-12-29T13:09:48;6.80;;;3.45;;
27201;SDS011;14717;46.924;15.474;2023-12-29T13:12:16;8.95;;;3.20;;
27201;SDS011;14717;46.924;15.474;2023-12-29T13:14:44;5.90;;;3.42;;
27201;SDS011;14717;46.924;15.474;2023-12-29T13:17:15;6.65;;;3.38;;
27201;SDS011;14717;46.924;15.474;2023-12-29T13:19:42;7.18;;;3.55;;
27201;SDS011;14717;46.924;15.474;2023-12-29T13:24:35;4.97;;;2.88;;
27201;SDS011;14717;46.924;15.474;2023-12-29T13:27:07;5.97;;;3.05;;
27201;SDS011;14717;46.924;15.474;2023-12-29T13:29:36;6.70;;;3.58;;
27201;SDS011;14717;46.924;15.474;2023-12-29T13:32:14;7.43;;;3.45;;
27201;SDS011;14717;46.924;15.474;2023-12-29T13:42:35;8.80;;;3.17;;
27201;SDS011;14717;46.924;15.474;2023-12-29T13:45:04;5.75;;;3.00;;
27201;SDS011;14717;46.924;15.474;2023-12-29T13:47:31;7.70;;;3.22;;
27201;SDS011;14717;46.924;15.474;2023-12-29T13:49:57;5.85;;;3.53;;
27201;SDS011;14717;46.924;15.474;2023-12-29T13:52:23;7.60;;;3.38;;
27201;SDS011;14717;46.924;15.474;2023-12-29T13:54:48;10.00;;;3.90;;
27201;SDS011;14717;46.924;15.474;2023-12-29T13:57:15;11.70;;;4.88;;
27201;SDS011;14717;46.924;15.474;2023-12-29T13:59:41;9.30;;;4.40;;
27201;SDS011;14717;46.924;15.474;2023-12-29T14:02:19;9.13;;;4.00;;
27201;SDS011;14717;46.924;15.474;2023-12-29T14:04:48;9.45;;;4.20;;
27201;SDS011;14717;46.924;15.474;2023-12-29T14:07:13;9.77;;;4.25;;
27201;SDS011;14717;46.924;15.474;2023-12-29T14:09:43;8.43;;;4.15;;
27201;SDS011;14717;46.924;15.474;2023-12-29T14:12:08;6.65;;;3.28;;
27201;SDS011;14717;46.924;15.474;2023-12-29T14:14:34;6.13;;;3.38;;
27201;SDS011;14717;46.924;15.474;2023-12-29T14:17:00;5.95;;;2.88;;
27201;SDS011;14717;46.924;15.474;2023-12-29T14:19:25;6.55;;;2.97;;
27201;SDS011;14717;46.924;15.474;2023-12-29T14:21:52;6.90;;;3.47;;
27201;SDS011;14717;46.924;15.474;2023-12-29T14:24:19;7.18;;;3.08;;
27201;SDS011;14717;46.924;15.474;2023-12-29T14:29:17;5.68;;;3.38;;
27201;SDS011;14717;46.924;15.474;2023-12-29T14:31:43;9.43;;;3.50;;
27201;SDS011;14717;46.924;15.474;2023-12-29T14:34:09;7.85;;;3.20;;
27201;SDS011;14717;46.924;15.474;2023-12-29T14:36:36;7.43;;;3.05;;
27201;SDS011;14717;46.924;15.474;2023-12-29T14:39:02;7.72;;;3.25;;
27201;SDS011;14717;46.924;15.474;2023-12-29T14:41:29;6.95;;;3.45;;
27201;SDS011;14717;46.924;15.474;2023-12-29T14:43:55;9.35;;;3.70;;
27201;SDS011;14717;46.924;15.474;2023-12-29T14:46:20;5.18;;;3.03;;
27201;SDS011;14717;46.924;15.474;2023-12-29T14:48:46;5.32;;;3.08;;
27201;SDS011;14717;46.924;15.474;2023-12-29T14:51:12;5.72;;;3.10;;
27201;SDS011;14717;46.924;15.474;2023-12-29T14:53:38;6.13;;;3.30;;
27201;SDS011;14717;46.924;15.474;2023-12-29T14:56:03;6.22;;;3.50;;
27201;SDS011;14717;46.924;15.474;2023-12-29T14:58:29;6.90;;;3.45;;
27201;SDS011;14717;46.924;15.474;2023-12-29T15:00:56;6.85;;;3.42;;
27201;SDS011;14717;46.924;15.474;2023-12-29T15:03:21;7.85;;;2.95;;